Courtenay, North Dakota
Current Conditions -  °F | °C
As of 1:56 AM on Wednesday 26 Nov 2014 (Local Time) from KJMS Reporting Station
Light Snow Light Snow  
Wind Chill: -6°   Ceiling: 800
Heat Index: 11°   Visibility: 5mi
Dew Point:   Wind: 16mph
Humidity: 81%   Direction: 360°N
Pressure: 30.14"   Gusts: NA
Location:  47.22°N, 98.57°W
Report Text: KJMS 260756Z AUTO 36014KT 5SM -SN BKN008 OVC070 M12/M14 A3014 RMK AO2 UPB17E19B50E51SNE17B19E45B54 SLP234 P0000 T11171144
Loading
Personal Weather Stations






























Interactive Weather Map New forecast layout! Learn more

10-Day Weather Forecast

Advertisements
Track Severe Weather on mobile